sensor_id;sensor_type;location;lat;lon;timestamp;temperature;humidity
19385;DHT22;9828;54.122;17.974;2023-11-22T08:14:59;3.10;1.00
19385;DHT22;9828;54.122;17.974;2023-11-22T08:20:20;3.40;1.00
19385;DHT22;9828;54.122;17.974;2023-11-22T08:25:43;4.50;99.90
19385;DHT22;9828;54.122;17.974;2023-11-22T08:31:05;5.80;1.00
19385;DHT22;9828;54.122;17.974;2023-11-22T08:36:30;6.70;1.00
19385;DHT22;9828;54.122;17.974;2023-11-22T08:41:52;7.10;1.00
19385;DHT22;9828;54.122;17.974;2023-11-22T08:47:13;6.20;1.00
19385;DHT22;9828;54.122;17.974;2023-11-22T08:52:35;5.10;1.00
19385;DHT22;9828;54.122;17.974;2023-11-22T08:57:57;4.60;1.00
19385;DHT22;9828;54.122;17.974;2023-11-22T09:03:19;3.80;99.90
19385;DHT22;9828;54.122;17.974;2023-11-22T09:08:40;3.10;1.00
19385;DHT22;9828;54.122;17.974;2023-11-22T09:14:02;2.60;99.90
19385;DHT22;9828;54.122;17.974;2023-11-22T09:19:26;2.40;1.00
19385;DHT22;9828;54.122;17.974;2023-11-22T09:24:47;2.30;1.00
19385;DHT22;9828;54.122;17.974;2023-11-22T09:30:09;2.40;1.00
19385;DHT22;9828;54.122;17.974;2023-11-22T09:35:38;2.50;1.00
19385;DHT22;9828;54.122;17.974;2023-11-22T09:41:00;2.60;99.90
19385;DHT22;9828;54.122;17.974;2023-11-22T09:46:23;2.70;4.20
19385;DHT22;9828;54.122;17.974;2023-11-22T09:51:45;2.80;1.00
19385;DHT22;9828;54.122;17.974;2023-11-22T09:57:08;2.70;19.90
19385;DHT22;9828;54.122;17.974;2023-11-22T10:02:31;2.60;99.90
19385;DHT22;9828;54.122;17.974;2023-11-22T10:07:53;2.60;1.00
19385;DHT22;9828;54.122;17.974;2023-11-22T10:13:14;2.60;1.00
19385;DHT22;9828;54.122;17.974;2023-11-22T10:18:39;2.70;54.00
19385;DHT22;9828;54.122;17.974;2023-11-22T10:24:02;2.90;1.00
19385;DHT22;9828;54.122;17.974;2023-11-22T10:29:25;3.10;91.30
19385;DHT22;9828;54.122;17.974;2023-11-22T10:34:46;3.30;99.90
19385;DHT22;9828;54.122;17.974;2023-11-22T10:40:08;3.60;1.00
19385;DHT22;9828;54.122;17.974;2023-11-22T10:45:31;3.50;1.00
19385;DHT22;9828;54.122;17.974;2023-11-22T10:50:53;3.30;1.00
19385;DHT22;9828;54.122;17.974;2023-11-22T10:56:16;3.30;1.00
19385;DHT22;9828;54.122;17.974;2023-11-22T11:01:44;4.10;1.00
19385;DHT22;9828;54.122;17.974;2023-11-22T11:12:39;8.60;1.00
19385;DHT22;9828;54.122;17.974;2023-11-22T11:18:00;10.70;1.00
19385;DHT22;9828;54.122;17.974;2023-11-22T11:23:24;10.90;1.00
19385;DHT22;9828;54.122;17.974;2023-11-22T11:28:47;10.70;1.00
19385;DHT22;9828;54.122;17.974;2023-11-22T11:34:08;10.70;1.00
19385;DHT22;9828;54.122;17.974;2023-11-22T11:39:29;11.00;1.00
19385;DHT22;9828;54.122;17.974;2023-11-22T11:45:03;11.10;1.00
19385;DHT22;9828;54.122;17.974;2023-11-22T11:50:24;11.00;1.00
19385;DHT22;9828;54.122;17.974;2023-11-22T11:55:46;11.10;1.00
19385;DHT22;9828;54.122;17.974;2023-11-22T12:01:17;10.80;1.00
19385;DHT22;9828;54.122;17.974;2023-11-22T12:06:41;9.70;1.00
19385;DHT22;9828;54.122;17.974;2023-11-22T12:12:02;8.60;1.00
19385;DHT22;9828;54.122;17.974;2023-11-22T12:17:26;7.90;1.00
19385;DHT22;9828;54.122;17.974;2023-11-22T12:22:48;7.30;1.00
19385;DHT22;9828;54.122;17.974;2023-11-22T12:28:09;6.70;1.00
19385;DHT22;9828;54.122;17.974;2023-11-22T12:33:31;6.50;1.00
19385;DHT22;9828;54.122;17.974;2023-11-22T12:44:19;6.10;1.00
19385;DHT22;9828;54.122;17.974;2023-11-22T12:49:46;5.90;1.00
19385;DHT22;9828;54.122;17.974;2023-11-22T12:55:07;5.60;24.50
19385;DHT22;9828;54.122;17.974;2023-11-22T13:00:30;5.40;99.90
19385;DHT22;9828;54.122;17.974;2023-11-22T13:05:51;5.20;99.90
19385;DHT22;9828;54.122;17.974;2023-11-22T13:11:15;5.20;99.90
19385;DHT22;9828;54.122;17.974;2023-11-22T13:16:36;5.20;99.90
19385;DHT22;9828;54.122;17.974;2023-11-22T13:21:59;5.10;99.90
19385;DHT22;9828;54.122;17.974;2023-11-22T13:27:20;4.90;99.90
19385;DHT22;9828;54.122;17.974;2023-11-22T13:32:41;4.80;99.90
19385;DHT22;9828;54.122;17.974;2023-11-22T13:38:04;4.80;1.00
19385;DHT22;9828;54.122;17.974;2023-11-22T13:43:31;4.80;1.00
19385;DHT22;9828;54.122;17.974;2023-11-22T13:48:54;4.80;1.00
19385;DHT22;9828;54.122;17.974;2023-11-22T13:54:15;4.70;1.00
19385;DHT22;9828;54.122;17.974;2023-11-22T13:59:37;4.50;1.00
19385;DHT22;9828;54.122;17.974;2023-11-22T14:04:59;4.40;1.00
19385;DHT22;9828;54.122;17.974;2023-11-22T14:10:21;4.20;1.00
19385;DHT22;9828;54.122;17.974;2023-11-22T14:21:04;4.00;1.00
19385;DHT22;9828;54.122;17.974;2023-11-22T14:26:25;3.80;1.00
19385;DHT22;9828;54.122;17.974;2023-11-22T14:31:47;3.60;16.80
19385;DHT22;9828;54.122;17.974;2023-11-22T14:37:08;3.50;1.00
19385;DHT22;9828;54.122;17.974;2023-11-22T14:42:30;3.50;99.20
19385;DHT22;9828;54.122;17.974;2023-11-22T14:47:52;3.40;17.90
19385;DHT22;9828;54.122;17.974;2023-11-22T14:53:13;3.30;99.90
19385;DHT22;9828;54.122;17.974;2023-11-22T14:58:34;3.20;99.90
19385;DHT22;9828;54.122;17.974;2023-11-22T15:03:55;3.10;99.90
19385;DHT22;9828;54.122;17.974;2023-11-22T15:09:17;3.00;99.90
19385;DHT22;9828;54.122;17.974;2023-11-22T15:14:38;3.00;99.90
19385;DHT22;9828;54.122;17.974;2023-11-22T15:20:00;3.00;99.90
19385;DHT22;9828;54.122;17.974;2023-11-22T15:25:21;3.00;99.90
19385;DHT22;9828;54.122;17.974;2023-11-22T15:30:42;2.90;99.90
19385;DHT22;9828;54.122;17.974;2023-11-22T15:36:06;2.90;1.00
19385;DHT22;9828;54.122;17.974;2023-11-22T15:41:28;2.80;1.00
19385;DHT22;9828;54.122;17.974;2023-11-22T15:46:49;2.70;1.00
19385;DHT22;9828;54.122;17.974;2023-11-22T15:52:10;2.70;1.00
19385;DHT22;9828;54.122;17.974;2023-11-22T15:57:31;2.60;1.00
19385;DHT22;9828;54.122;17.974;2023-11-22T16:02:53;2.60;1.00
19385;DHT22;9828;54.122;17.974;2023-11-22T16:08:14;2.60;99.90
19385;DHT22;9828;54.122;17.974;2023-11-22T16:13:36;2.50;1.00
19385;DHT22;9828;54.122;17.974;2023-11-22T16:18:57;2.40;1.00
19385;DHT22;9828;54.122;17.974;2023-11-22T16:24:19;2.40;1.00
19385;DHT22;9828;54.122;17.974;2023-11-22T16:29:40;2.30;99.90
19385;DHT22;9828;54.122;17.974;2023-11-22T16:35:01;2.30;99.90
19385;DHT22;9828;54.122;17.974;2023-11-22T16:40:23;2.30;1.00
19385;DHT22;9828;54.122;17.974;2023-11-22T16:45:47;2.10;13.60
19385;DHT22;9828;54.122;17.974;2023-11-22T16:51:09;2.10;1.00
19385;DHT22;9828;54.122;17.974;2023-11-22T16:56:29;2.10;1.00
19385;DHT22;9828;54.122;17.974;2023-11-22T17:01:50;2.10;1.00
19385;DHT22;9828;54.122;17.974;2023-11-22T17:07:13;2.00;1.00
19385;DHT22;9828;54.122;17.974;2023-11-22T17:12:34;2.00;1.00
19385;DHT22;9828;54.122;17.974;2023-11-22T17:17:55;2.10;1.00
19385;DHT22;9828;54.122;17.974;2023-11-22T17:23:16;2.20;1.00
19385;DHT22;9828;54.122;17.974;2023-11-22T17:28:37;2.10;1.00
19385;DHT22;9828;54.122;17.974;2023-11-22T17:33:58;2.10;1.00
19385;DHT22;9828;54.122;17.974;2023-11-22T17:39:20;2.00;99.90
19385;DHT22;9828;54.122;17.974;2023-11-22T17:44:41;2.00;1.00
19385;DHT22;9828;54.122;17.974;2023-11-22T17:50:06;2.10;99.90
19385;DHT22;9828;54.122;17.974;2023-11-22T17:55:28;1.90;99.90
19385;DHT22;9828;54.122;17.974;2023-11-22T18:00:49;2.00;99.90
19385;DHT22;9828;54.122;17.974;2023-11-22T18:06:10;2.00;99.90
19385;DHT22;9828;54.122;17.974;2023-11-22T18:11:35;1.90;99.90
19385;DHT22;9828;54.122;17.974;2023-11-22T18:16:56;2.00;22.00
19385;DHT22;9828;54.122;17.974;2023-11-22T18:22:17;1.90;7.90
19385;DHT22;9828;54.122;17.974;2023-11-22T18:27:39;1.80;1.00
19385;DHT22;9828;54.122;17.974;2023-11-22T18:33:02;1.80;1.00
19385;DHT22;9828;54.122;17.974;2023-11-22T18:38:25;1.70;1.00
19385;DHT22;9828;54.122;17.974;2023-11-22T18:43:46;1.70;1.00
19385;DHT22;9828;54.122;17.974;2023-11-22T18:49:07;1.70;1.00
19385;DHT22;9828;54.122;17.974;2023-11-22T18:54:29;1.80;1.00
19385;DHT22;9828;54.122;17.974;2023-11-22T18:59:51;1.80;1.00
19385;DHT22;9828;54.122;17.974;2023-11-22T19:05:13;1.70;1.00
19385;DHT22;9828;54.122;17.974;2023-11-22T19:10:34;1.70;1.00
19385;DHT22;9828;54.122;17.974;2023-11-22T19:15:55;1.60;1.00
19385;DHT22;9828;54.122;17.974;2023-11-22T19:21:20;1.70;1.00
19385;DHT22;9828;54.122;17.974;2023-11-22T19:26:42;1.60;1.00
19385;DHT22;9828;54.122;17.974;2023-11-22T19:32:05;1.60;1.00
19385;DHT22;9828;54.122;17.974;2023-11-22T19:37:26;1.60;1.00
19385;DHT22;9828;54.122;17.974;2023-11-22T19:42:48;1.60;1.00
19385;DHT22;9828;54.122;17.974;2023-11-22T19:48:09;1.60;1.00
19385;DHT22;9828;54.122;17.974;2023-11-22T19:53:31;1.70;1.00
19385;DHT22;9828;54.122;17.974;2023-11-22T19:58:52;1.60;1.00
19385;DHT22;9828;54.122;17.974;2023-11-22T20:04:13;1.50;1.00
19385;DHT22;9828;54.122;17.974;2023-11-22T20:09:36;1.50;1.00
19385;DHT22;9828;54.122;17.974;2023-11-22T20:14:58;1.50;1.00
19385;DHT22;9828;54.122;17.974;2023-11-22T20:20:19;1.40;1.00
19385;DHT22;9828;54.122;17.974;2023-11-22T20:25:43;1.40;1.00
19385;DHT22;9828;54.122;17.974;2023-11-22T20:31:05;1.50;1.00
19385;DHT22;9828;54.122;17.974;2023-11-22T20:36:26;1.40;1.00
19385;DHT22;9828;54.122;17.974;2023-11-22T20:41:47;1.30;1.00
19385;DHT22;9828;54.122;17.974;2023-11-22T20:47:10;1.40;1.00
19385;DHT22;9828;54.122;17.974;2023-11-22T20:52:32;1.40;1.00
19385;DHT22;9828;54.122;17.974;2023-11-22T20:57:52;1.40;1.00
19385;DHT22;9828;54.122;17.974;2023-11-22T21:03:14;1.40;1.00
19385;DHT22;9828;54.122;17.974;2023-11-22T21:08:35;1.30;1.00
19385;DHT22;9828;54.122;17.974;2023-11-22T21:13:56;1.20;1.00
19385;DHT22;9828;54.122;17.974;2023-11-22T21:19:17;1.30;1.00
19385;DHT22;9828;54.122;17.974;2023-11-22T21:24:38;1.30;1.00
19385;DHT22;9828;54.122;17.974;2023-11-22T21:30:00;1.30;1.00
19385;DHT22;9828;54.122;17.974;2023-11-22T21:35:21;1.20;1.00
19385;DHT22;9828;54.122;17.974;2023-11-22T21:40:42;1.10;1.00
19385;DHT22;9828;54.122;17.974;2023-11-22T21:46:05;1.30;1.00
19385;DHT22;9828;54.122;17.974;2023-11-22T21:51:31;1.20;1.00
19385;DHT22;9828;54.122;17.974;2023-11-22T21:56:53;1.20;1.00
19385;DHT22;9828;54.122;17.974;2023-11-22T22:02:14;1.20;1.00
19385;DHT22;9828;54.122;17.974;2023-11-22T22:07:35;1.20;1.00
19385;DHT22;9828;54.122;17.974;2023-11-22T22:12:56;1.20;1.00
19385;DHT22;9828;54.122;17.974;2023-11-22T22:18:17;1.20;1.00
19385;DHT22;9828;54.122;17.974;2023-11-22T22:23:38;1.20;1.00
19385;DHT22;9828;54.122;17.974;2023-11-22T22:29:00;1.20;1.00
19385;DHT22;9828;54.122;17.974;2023-11-22T22:34:21;1.20;1.00
19385;DHT22;9828;54.122;17.974;2023-11-22T22:39:42;1.10;1.00
19385;DHT22;9828;54.122;17.974;2023-11-22T22:45:04;1.20;1.00
19385;DHT22;9828;54.122;17.974;2023-11-22T22:50:25;1.20;1.00
19385;DHT22;9828;54.122;17.974;2023-11-22T22:55:46;1.20;1.00
19385;DHT22;9828;54.122;17.974;2023-11-22T23:01:10;1.10;1.00
19385;DHT22;9828;54.122;17.974;2023-11-22T23:06:31;1.20;1.00
19385;DHT22;9828;54.122;17.974;2023-11-22T23:11:54;1.20;1.00
19385;DHT22;9828;54.122;17.974;2023-11-22T23:17:15;1.30;1.00
19385;DHT22;9828;54.122;17.974;2023-11-22T23:22:37;1.20;1.00
19385;DHT22;9828;54.122;17.974;2023-11-22T23:27:59;1.20;1.00
19385;DHT22;9828;54.122;17.974;2023-11-22T23:33:20;1.20;1.00
19385;DHT22;9828;54.122;17.974;2023-11-22T23:38:41;1.20;1.00
19385;DHT22;9828;54.122;17.974;2023-11-22T23:44:03;1.20;1.00
19385;DHT22;9828;54.122;17.974;2023-11-22T23:49:26;1.10;1.00
19385;DHT22;9828;54.122;17.974;2023-11-22T23:54:48;1.10;1.00
